Hawthorne, Florida
Current Conditions -  °F | °C
As of 10:53 AM on Saturday 22 Nov 2014 (Local Time) from KGNV Reporting Station
Overcast Overcast  
Wind Chill: 69°   Ceiling: 4400
Heat Index: 69°   Visibility: 10mi
Dew Point: 60°   Wind: 9mph
Humidity: 73%   Direction: 70°ENE
Pressure: 30.3"   Gusts: NA
Location:  29.59°N, 82.09°W
Report Text: KGNV 221553Z 07008KT 10SM BKN044 OVC055 21/16 A3030 RMK AO2 SLP261 T02060156
Loading
Personal Weather Stations






























Interactive Weather Map New forecast layout! Learn more

10-Day Weather Forecast

Advertisements
Track Severe Weather on mobile